createdAt,value
2023-01-11T00:00:46.909Z,65.30
2023-01-11T00:03:13.437Z,64.91
2023-01-11T00:05:41.626Z,65.28
2023-01-11T00:08:08.999Z,64.49
2023-01-11T00:10:36.185Z,65.06
2023-01-11T00:13:03.469Z,65.72
2023-01-11T00:15:30.494Z,65.23
2023-01-11T00:17:57.717Z,64.94
2023-01-11T00:20:24.522Z,65.21
2023-01-11T00:22:50.997Z,64.59
2023-01-11T00:25:17.851Z,65.24
2023-01-11T00:27:44.325Z,65.39
2023-01-11T00:30:11.561Z,64.81
2023-01-11T00:32:38.048Z,65.21
2023-01-11T00:35:04.909Z,64.90
2023-01-11T00:37:31.436Z,64.89
2023-01-11T00:39:58.005Z,65.49
2023-01-11T00:42:42.838Z,66.09
2023-01-11T00:45:28.644Z,65.69
2023-01-11T00:47:57.983Z,65.87
2023-01-11T00:50:25.583Z,65.62
2023-01-11T00:52:52.106Z,66.17
2023-01-11T00:55:18.877Z,65.83
2023-01-11T00:57:45.368Z,65.87
2023-01-11T01:00:12.636Z,66.18
2023-01-11T01:02:39.244Z,65.24
2023-01-11T01:05:06.253Z,65.61
2023-01-11T01:07:32.706Z,65.10
2023-01-11T01:09:59.149Z,65.04
2023-01-11T01:12:43.988Z,65.55
2023-01-11T01:15:10.885Z,65.93
2023-01-11T01:17:37.309Z,65.77
2023-01-11T01:20:04.341Z,65.41
2023-01-11T01:22:30.841Z,65.43
2023-01-11T01:24:57.307Z,65.30
2023-01-11T01:27:23.786Z,64.76
2023-01-11T01:29:50.225Z,65.42
2023-01-11T01:32:16.775Z,64.48
2023-01-11T01:34:43.322Z,64.95
2023-01-11T01:37:11.273Z,64.49
2023-01-11T01:39:38.512Z,64.37
2023-01-11T01:42:06.062Z,64.47
2023-01-11T01:45:16.786Z,64.11
2023-01-11T01:47:53.581Z,64.40
2023-01-11T01:50:29.517Z,64.26
2023-01-11T01:53:03.248Z,63.82
2023-01-11T01:55:36.290Z,63.80
2023-01-11T01:58:07.225Z,64.11
2023-01-11T02:00:33.919Z,63.32
2023-01-11T02:03:01.993Z,63.04
2023-01-11T02:12:49.560Z,62.94
2023-01-11T02:15:18.375Z,62.41
2023-01-11T02:17:44.940Z,62.90
2023-01-11T02:20:19.972Z,62.29
2023-01-11T02:22:46.465Z,61.64
2023-01-11T02:25:12.856Z,61.66
2023-01-11T02:28:22.423Z,61.86
2023-01-11T02:31:07.415Z,61.69
2023-01-11T02:33:36.531Z,61.11
2023-01-11T02:36:12.349Z,60.98
2023-01-11T02:38:57.912Z,62.04
2023-01-11T02:41:57.011Z,60.79
2023-01-11T02:44:47.332Z,60.94
2023-01-11T02:47:21.624Z,61.18
2023-01-11T02:49:59.853Z,61.30
2023-01-11T02:52:55.803Z,61.31
2023-01-11T02:55:27.690Z,60.76
2023-01-11T02:57:57.663Z,60.42
2023-01-11T03:00:25.620Z,61.03
2023-01-11T03:03:13.571Z,61.24
2023-01-11T03:06:03.155Z,60.91
2023-01-11T03:08:58.704Z,61.15
2023-01-11T03:12:17.751Z,61.59
2023-01-11T03:14:56.412Z,61.23
2023-01-11T03:17:28.802Z,61.22
2023-01-11T03:20:26.833Z,61.14
2023-01-11T03:23:27.375Z,61.70
2023-01-11T03:25:57.011Z,61.33
2023-01-11T03:28:59.915Z,60.69
2023-01-11T03:31:38.535Z,61.05
2023-01-11T03:34:26.665Z,61.14
2023-01-11T03:37:01.750Z,61.24
2023-01-11T03:39:54.054Z,61.49
2023-01-11T03:42:24.101Z,60.75
2023-01-11T03:44:55.348Z,61.07
2023-01-11T03:47:25.203Z,61.14
2023-01-11T03:50:01.440Z,60.53
2023-01-11T03:52:32.558Z,60.89
2023-01-11T03:55:00.792Z,60.77
2023-01-11T03:57:37.702Z,60.71
2023-01-11T04:00:07.536Z,61.32
2023-01-11T04:02:40.169Z,60.92
2023-01-11T04:05:09.304Z,61.06
2023-01-11T04:07:35.953Z,61.03
2023-01-11T04:10:03.739Z,61.21
2023-01-11T04:12:30.189Z,61.11
2023-01-11T04:14:56.701Z,61.34
2023-01-11T04:17:23.364Z,61.12
2023-01-11T04:19:49.871Z,61.56
2023-01-11T04:22:16.386Z,61.34
2023-01-11T04:24:43.030Z,61.73
2023-01-11T04:27:09.529Z,61.94
2023-01-11T04:29:36.181Z,62.06
2023-01-11T04:32:03.651Z,61.25
2023-01-11T04:34:30.130Z,61.35
2023-01-11T04:36:56.687Z,61.82
2023-01-11T04:39:23.201Z,61.98
2023-01-11T04:42:08.046Z,62.41
2023-01-11T04:44:34.537Z,61.35
2023-01-11T04:47:00.956Z,62.19
2023-01-11T04:49:27.590Z,62.03
2023-01-11T04:51:54.043Z,62.02
2023-01-11T04:54:20.516Z,62.36
2023-01-11T04:56:46.932Z,62.02
2023-01-11T04:59:14.222Z,62.02
2023-01-11T05:01:40.817Z,62.39
2023-01-11T05:04:07.277Z,62.67
2023-01-11T05:06:33.876Z,62.94
2023-01-11T05:09:00.401Z,62.93
2023-01-11T05:11:26.901Z,62.45
2023-01-11T05:13:53.334Z,63.01
2023-01-11T05:16:23.742Z,63.20
2023-01-11T05:18:51.724Z,63.08
2023-01-11T05:21:21.748Z,62.36
2023-01-11T05:23:49.032Z,63.41
2023-01-11T05:26:22.845Z,63.06
2023-01-11T05:28:50.578Z,63.03
2023-01-11T05:31:17.318Z,62.92
2023-01-11T05:33:44.478Z,63.40
2023-01-11T05:36:14.284Z,63.13
2023-01-11T05:38:40.835Z,63.36
2023-01-11T05:41:09.738Z,63.31
2023-01-11T05:43:55.540Z,62.81
2023-01-11T05:46:22.318Z,63.47
2023-01-11T05:48:49.132Z,63.69
2023-01-11T05:51:15.892Z,63.28
2023-01-11T05:53:42.507Z,63.70
2023-01-11T05:56:09.308Z,65.43
2023-01-11T05:58:35.885Z,64.61
2023-01-11T06:01:02.399Z,64.69
2023-01-11T06:03:28.839Z,65.32
2023-01-11T06:05:55.443Z,64.95
2023-01-11T06:08:21.888Z,65.16
2023-01-11T06:10:55.887Z,64.61
2023-01-11T06:13:26.669Z,65.22
2023-01-11T06:16:06.907Z,65.60
2023-01-11T06:18:36.584Z,64.47
2023-01-11T06:21:04.452Z,65.12
2023-01-11T06:23:33.946Z,64.73
2023-01-11T06:26:05.099Z,64.66
2023-01-11T06:28:31.659Z,64.61
2023-01-11T06:30:59.406Z,64.69
2023-01-11T06:33:27.814Z,65.17
2023-01-11T06:35:54.778Z,64.91
2023-01-11T06:38:23.505Z,65.07
2023-01-11T06:41:00.315Z,64.84
2023-01-11T06:43:28.357Z,64.81
2023-01-11T06:45:55.283Z,64.98
2023-01-11T06:48:22.744Z,65.13
2023-01-11T06:50:54.783Z,65.04
2023-01-11T06:53:22.370Z,64.87
2023-01-11T06:55:52.848Z,64.81
2023-01-11T06:58:20.418Z,64.54
2023-01-11T07:00:47.327Z,65.17
2023-01-11T07:03:13.852Z,65.45
2023-01-11T07:05:41.213Z,64.92
2023-01-11T07:08:08.432Z,64.47
2023-01-11T07:10:35.064Z,64.60
2023-01-11T07:13:01.761Z,65.26
2023-01-11T07:15:28.515Z,64.68
2023-01-11T07:17:59.758Z,65.10
2023-01-11T07:20:26.903Z,65.27
2023-01-11T07:22:58.281Z,64.90
2023-01-11T07:25:25.856Z,65.33
2023-01-11T07:27:59.749Z,65.38
2023-01-11T07:30:28.439Z,65.07
2023-01-11T07:32:57.017Z,65.38
2023-01-11T07:35:23.484Z,65.23
2023-01-11T07:37:50.098Z,65.50
2023-01-11T07:40:18.001Z,65.74
2023-01-11T07:43:13.417Z,65.58
2023-01-11T07:45:45.703Z,65.89
2023-01-11T07:48:13.785Z,65.73
2023-01-11T07:50:44.265Z,65.73
2023-01-11T07:53:12.274Z,65.41
2023-01-11T07:55:39.773Z,65.75
2023-01-11T07:58:07.740Z,65.88
2023-01-11T08:00:34.290Z,65.90
2023-01-11T08:03:01.659Z,65.55
2023-01-11T08:05:28.396Z,66.06
2023-01-11T08:07:54.981Z,65.96
2023-01-11T08:10:21.562Z,65.85
2023-01-11T08:13:07.555Z,65.54
2023-01-11T08:15:39.385Z,66.14
2023-01-11T08:18:06.412Z,66.08
2023-01-11T08:20:33.168Z,65.64
2023-01-11T08:23:06.201Z,66.50
2023-01-11T08:25:36.142Z,66.64
2023-01-11T08:28:05.463Z,66.54
2023-01-11T08:30:32.323Z,66.21
2023-01-11T08:33:00.980Z,66.00
2023-01-11T08:35:27.848Z,66.21
2023-01-11T08:37:54.515Z,66.40
2023-01-11T08:40:23.852Z,66.08
2023-01-11T08:42:55.338Z,66.25
2023-01-11T08:45:22.167Z,65.96
2023-01-11T08:47:50.731Z,65.74
2023-01-11T08:50:18.676Z,66.59
2023-01-11T08:52:45.909Z,66.08
2023-01-11T08:55:12.483Z,66.67
2023-01-11T08:57:39.209Z,66.20
2023-01-11T09:00:07.478Z,66.72
2023-01-11T09:02:34.280Z,66.78
2023-01-11T09:05:00.884Z,66.54
2023-01-11T09:07:27.376Z,66.93
2023-01-11T09:09:53.912Z,66.43
2023-01-11T09:12:20.409Z,66.65
2023-01-11T09:14:46.942Z,67.36
2023-01-11T09:17:13.439Z,66.94
2023-01-11T09:19:39.920Z,66.93
2023-01-11T09:22:06.400Z,66.77
2023-01-11T09:24:33.008Z,67.62
2023-01-11T09:27:00.427Z,69.71
2023-01-11T09:29:27.098Z,70.85
2023-01-11T09:31:53.763Z,71.43
2023-01-11T09:34:21.012Z,73.00
2023-01-11T09:36:49.049Z,73.69
2023-01-11T09:39:18.829Z,74.60
2023-01-11T09:41:45.277Z,75.60
2023-01-11T09:44:18.998Z,76.41
2023-01-11T09:46:51.314Z,76.93
2023-01-11T09:49:31.371Z,76.94
2023-01-11T09:52:21.733Z,77.82
2023-01-11T09:54:48.230Z,78.19
2023-01-11T09:57:18.312Z,78.08
2023-01-11T09:59:52.901Z,78.50
2023-01-11T10:02:59.216Z,78.57
2023-01-11T10:05:29.845Z,79.22
2023-01-11T10:18:31.010Z,80.11
2023-01-11T10:19:12.344Z,79.73
2023-01-11T10:21:27.258Z,79.90
2023-01-11T10:23:58.048Z,79.96
2023-01-11T10:26:32.365Z,79.68
2023-01-11T10:29:16.501Z,79.97
2023-01-11T10:31:59.766Z,80.19
2023-01-11T10:34:59.965Z,80.40
2023-01-11T10:37:49.989Z,79.77
2023-01-11T10:40:40.632Z,79.87
2023-01-11T10:43:21.852Z,79.98
2023-01-11T10:45:52.868Z,79.53
2023-01-11T10:48:28.324Z,80.27
2023-01-11T10:50:54.902Z,80.65
2023-01-11T10:53:28.224Z,81.18
2023-01-11T10:56:06.858Z,80.84
2023-01-11T10:59:06.170Z,81.19
2023-01-11T11:01:46.373Z,81.33
2023-01-11T11:04:42.625Z,81.78
2023-01-11T11:07:24.177Z,81.37
2023-01-11T11:10:26.311Z,81.57
2023-01-11T11:13:07.423Z,82.16
2023-01-11T11:15:40.900Z,82.24
2023-01-11T11:18:07.652Z,82.61
2023-01-11T11:20:34.792Z,82.44
2023-01-11T11:23:01.869Z,82.56
2023-01-11T11:25:37.731Z,82.32
2023-01-11T11:28:07.087Z,82.21
2023-01-11T11:30:39.523Z,83.16
2023-01-11T11:33:27.935Z,82.75
2023-01-11T11:36:02.188Z,83.01
2023-01-11T11:38:31.013Z,83.41
2023-01-11T11:41:17.748Z,82.55
2023-01-11T11:43:47.232Z,82.80
2023-01-11T11:46:18.912Z,82.77
2023-01-11T11:49:15.728Z,83.05
2023-01-11T11:51:45.169Z,82.83
2023-01-11T11:54:28.440Z,83.19
2023-01-11T11:56:57.603Z,83.18
2023-01-11T11:59:28.507Z,83.12
2023-01-11T12:02:00.791Z,83.09
2023-01-11T12:04:39.976Z,83.00
2023-01-11T12:07:16.116Z,82.85
2023-01-11T12:09:47.594Z,82.90
2023-01-11T12:12:24.958Z,83.04
2023-01-11T12:15:20.938Z,83.24
2023-01-11T12:17:48.097Z,83.33
2023-01-11T12:20:23.951Z,82.29
2023-01-11T12:23:15.719Z,82.02
2023-01-11T12:26:11.179Z,83.05
2023-01-11T12:29:14.728Z,82.70
2023-01-11T12:32:05.843Z,82.72
2023-01-11T12:34:45.813Z,82.33
2023-01-11T12:37:30.086Z,82.72
2023-01-11T12:40:17.361Z,82.45
2023-01-11T12:43:03.581Z,83.09
2023-01-11T12:45:59.433Z,82.80
2023-01-11T12:48:36.416Z,83.09
2023-01-11T12:51:37.139Z,82.98
2023-01-11T12:54:29.553Z,83.18
2023-01-11T12:57:31.968Z,83.04
2023-01-11T13:00:01.036Z,82.84
2023-01-11T13:02:36.386Z,82.94
2023-01-11T13:05:29.197Z,82.81
2023-01-11T13:08:16.548Z,83.12
2023-01-11T13:11:35.224Z,82.99
2023-01-11T13:14:30.906Z,83.50
2023-01-11T13:17:18.696Z,83.98
2023-01-11T13:20:06.914Z,83.93
2023-01-11T13:22:38.776Z,83.50
2023-01-11T13:25:16.887Z,83.75
2023-01-11T13:27:44.954Z,83.48
2023-01-11T13:30:14.066Z,83.93
2023-01-11T13:32:44.387Z,83.43
2023-01-11T13:35:18.387Z,83.87
2023-01-11T13:37:52.327Z,84.00
2023-01-11T13:40:24.831Z,84.15
2023-01-11T13:46:47.304Z,83.53
2023-01-11T13:49:29.215Z,83.84
2023-01-11T13:52:04.275Z,84.01
2023-01-11T13:54:56.678Z,83.57
2023-01-11T13:57:34.313Z,83.79
2023-01-11T14:00:11.189Z,84.50
2023-01-11T14:02:48.059Z,84.10
2023-01-11T14:05:18.718Z,83.85
2023-01-11T14:08:15.117Z,84.77
2023-01-11T14:11:09.595Z,84.61
2023-01-11T14:14:15.703Z,83.87
2023-01-11T14:17:04.268Z,83.38
2023-01-11T14:19:55.198Z,84.12
2023-01-11T14:22:45.531Z,83.61
2023-01-11T14:25:33.156Z,84.17
2023-01-11T14:28:49.151Z,83.53
2023-01-11T14:31:40.665Z,84.05
2023-01-11T14:34:22.459Z,83.83
2023-01-11T14:37:08.161Z,83.51
2023-01-11T14:39:53.259Z,83.81
2023-01-11T14:42:45.104Z,84.12
2023-01-11T14:45:16.686Z,84.23
2023-01-11T14:48:20.592Z,84.29
2023-01-11T14:51:33.210Z,83.66
2023-01-11T14:54:12.199Z,83.19
2023-01-11T14:56:49.866Z,83.92
2023-01-11T14:59:40.350Z,84.57
2023-01-11T15:02:16.303Z,84.80
2023-01-11T15:04:52.385Z,84.19
2023-01-11T15:07:31.556Z,83.68
2023-01-11T15:10:07.177Z,84.46
2023-01-11T15:12:41.333Z,84.20
2023-01-11T15:15:24.921Z,83.87
2023-01-11T15:18:15.832Z,84.27
2023-01-11T15:21:01.820Z,84.61
2023-01-11T15:23:39.926Z,83.69
2023-01-11T15:26:15.547Z,83.97
2023-01-11T15:29:12.463Z,83.42
2023-01-11T15:32:17.969Z,83.91
2023-01-11T15:35:19.643Z,84.33
2023-01-11T15:38:14.228Z,83.44
2023-01-11T15:44:41.766Z,84.22
2023-01-11T15:47:11.155Z,83.92
2023-01-11T15:50:02.647Z,83.81
2023-01-11T15:52:34.998Z,84.07
2023-01-11T15:55:23.807Z,84.09
2023-01-11T16:01:23.641Z,82.48
2023-01-11T16:04:10.574Z,83.22
2023-01-11T16:07:10.324Z,83.07
2023-01-11T16:10:01.565Z,83.24
2023-01-11T16:13:23.366Z,83.82
2023-01-11T16:16:31.828Z,82.44
2023-01-11T16:19:09.872Z,82.48
2023-01-11T16:21:49.434Z,83.13
2023-01-11T16:24:20.914Z,83.08
2023-01-11T16:27:17.409Z,82.78
2023-01-11T16:29:50.689Z,82.76
2023-01-11T16:32:27.238Z,82.20
2023-01-11T16:34:55.728Z,82.62
2023-01-11T16:37:36.086Z,82.20
2023-01-11T16:40:15.539Z,82.66
2023-01-11T16:42:48.536Z,82.88
2023-01-11T16:45:23.837Z,82.90
2023-01-11T16:48:23.099Z,82.59
2023-01-11T16:51:07.279Z,81.63
2023-01-11T16:53:37.179Z,81.75
2023-01-11T16:56:05.825Z,82.59
2023-01-11T16:58:40.320Z,82.68
2023-01-11T17:01:12.558Z,83.05
2023-01-11T17:03:54.201Z,82.27
2023-01-11T17:06:23.355Z,82.48
2023-01-11T17:08:55.654Z,81.96
2023-01-11T17:11:42.747Z,82.07
2023-01-11T17:14:37.664Z,81.83
2023-01-11T17:17:09.812Z,82.65
2023-01-11T17:19:43.429Z,82.08
2023-01-11T17:22:27.698Z,81.66
2023-01-11T17:25:01.145Z,81.68
2023-01-11T17:27:41.175Z,82.95
2023-01-11T17:30:19.814Z,83.16
2023-01-11T17:32:49.302Z,83.31
2023-01-11T17:35:24.511Z,82.92
2023-01-11T17:38:03.250Z,82.19
2023-01-11T17:40:33.024Z,81.69
2023-01-11T17:43:30.148Z,82.00
2023-01-11T17:45:58.780Z,82.17
2023-01-11T17:48:29.571Z,82.05
2023-01-11T17:50:59.276Z,82.14
2023-01-11T17:53:29.307Z,83.04
2023-01-11T17:56:00.116Z,82.67
2023-01-11T17:58:33.864Z,82.91
2023-01-11T18:01:09.386Z,82.27
2023-01-11T18:03:48.351Z,81.59
2023-01-11T18:06:41.375Z,81.85
2023-01-11T18:09:29.528Z,81.48
2023-01-11T18:12:18.074Z,81.40
2023-01-11T18:14:52.436Z,81.86
2023-01-11T18:17:24.683Z,81.91
2023-01-11T18:19:51.158Z,81.70
2023-01-11T18:22:26.384Z,81.37
2023-01-11T18:24:54.679Z,81.84
2023-01-11T18:27:32.462Z,81.97
2023-01-11T18:30:02.450Z,82.29
2023-01-11T18:32:35.373Z,82.09
2023-01-11T18:35:02.095Z,82.95
2023-01-11T18:37:28.569Z,82.69
2023-01-11T18:39:55.083Z,82.51
2023-01-11T18:42:26.820Z,82.64
2023-01-11T18:44:53.346Z,82.96
2023-01-11T18:47:28.360Z,83.10
2023-01-11T18:49:55.397Z,83.25
2023-01-11T18:52:27.639Z,82.50
2023-01-11T18:54:56.037Z,82.48
2023-01-11T18:57:23.583Z,82.50
2023-01-11T18:59:54.356Z,82.79
2023-01-11T19:02:25.713Z,81.91
2023-01-11T19:04:57.179Z,81.52
2023-01-11T19:07:26.001Z,81.82
2023-01-11T19:09:54.756Z,81.69
2023-01-11T19:12:21.493Z,81.58
2023-01-11T19:14:48.050Z,81.62
2023-01-11T19:17:14.605Z,82.05
2023-01-11T19:19:41.604Z,82.11
2023-01-11T19:22:09.775Z,81.94
2023-01-11T19:24:36.399Z,81.69
2023-01-11T19:27:03.649Z,81.83
2023-01-11T19:29:30.714Z,81.74
2023-01-11T19:31:57.335Z,81.67
2023-01-11T19:34:24.176Z,81.35
2023-01-11T19:36:52.422Z,81.54
2023-01-11T19:39:19.467Z,81.22
2023-01-11T19:41:55.370Z,81.29
2023-01-11T19:44:22.813Z,81.55
2023-01-11T19:46:56.738Z,81.87
2023-01-11T19:49:23.625Z,81.63
2023-01-11T19:51:51.001Z,82.20
2023-01-11T19:54:20.654Z,82.01
2023-01-11T19:56:48.689Z,81.79
2023-01-11T19:59:15.686Z,81.52
2023-01-11T20:01:42.859Z,81.34
2023-01-11T20:04:10.838Z,81.51
2023-01-11T20:06:40.853Z,81.30
2023-01-11T20:09:09.883Z,81.13
2023-01-11T20:11:36.745Z,81.66
2023-01-11T20:14:03.218Z,81.43
2023-01-11T20:16:29.714Z,81.44
2023-01-11T20:18:57.292Z,81.72
2023-01-11T20:21:27.558Z,81.40
2023-01-11T20:23:57.570Z,80.97
2023-01-11T20:26:24.559Z,81.44
2023-01-11T20:28:54.461Z,80.90
2023-01-11T20:31:27.279Z,80.46
2023-01-11T20:33:55.208Z,80.28
2023-01-11T20:36:21.821Z,80.10
2023-01-11T20:38:48.266Z,80.50
2023-01-11T20:41:36.880Z,80.38
2023-01-11T20:44:04.869Z,79.79
2023-01-11T20:46:31.763Z,79.94
2023-01-11T20:48:58.307Z,80.01
2023-01-11T20:51:24.755Z,79.96
2023-01-11T20:53:51.482Z,80.07
2023-01-11T20:56:18.616Z,79.87
2023-01-11T20:58:48.661Z,80.34
2023-01-11T21:01:27.764Z,80.16
2023-01-11T21:03:57.389Z,80.11
2023-01-11T21:06:24.171Z,79.90
2023-01-11T21:08:55.233Z,80.16
2023-01-11T21:11:21.940Z,79.70
2023-01-11T21:13:50.500Z,79.52
2023-01-11T21:16:17.060Z,79.14
2023-01-11T21:18:44.006Z,78.96
2023-01-11T21:21:19.050Z,79.11
2023-01-11T21:23:46.761Z,78.91
2023-01-11T21:26:16.331Z,79.14
2023-01-11T21:28:44.277Z,78.95
2023-01-11T21:31:12.846Z,78.70
2023-01-11T21:33:39.744Z,79.19
2023-01-11T21:36:11.550Z,79.17
2023-01-11T21:38:38.535Z,78.88
2023-01-11T21:41:10.719Z,78.90
2023-01-11T21:43:37.729Z,79.42
2023-01-11T21:46:06.518Z,79.88
2023-01-11T21:48:33.622Z,79.51
2023-01-11T21:51:00.191Z,79.32
2023-01-11T21:53:33.414Z,79.45
2023-01-11T21:56:07.872Z,79.14
2023-01-11T21:58:35.365Z,79.29
2023-01-11T22:01:11.185Z,79.82
2023-01-11T22:03:38.164Z,79.85
2023-01-11T22:06:05.106Z,79.28
2023-01-11T22:08:35.437Z,79.48
2023-01-11T22:11:04.383Z,79.29
2023-01-11T22:13:34.123Z,79.19
2023-01-11T22:16:06.669Z,79.09
2023-01-11T22:18:34.743Z,78.90
2023-01-11T22:21:07.335Z,78.39
2023-01-11T22:23:34.022Z,78.85
2023-01-11T22:26:05.513Z,78.43
2023-01-11T22:28:32.161Z,78.99
2023-01-11T22:31:07.873Z,78.34
2023-01-11T22:33:36.498Z,79.16
2023-01-11T22:36:04.478Z,78.91
2023-01-11T22:38:30.890Z,78.70
2023-01-11T22:40:59.593Z,79.01
2023-01-11T22:43:26.074Z,79.06
2023-01-11T22:46:00.378Z,78.41
2023-01-11T22:48:27.599Z,78.63
2023-01-11T22:50:55.088Z,78.61
2023-01-11T22:53:21.734Z,78.24
2023-01-11T22:55:48.255Z,78.74
2023-01-11T22:58:14.680Z,77.98
2023-01-11T23:00:41.159Z,78.39
2023-01-11T23:03:07.891Z,78.32
2023-01-11T23:05:34.516Z,78.30
2023-01-11T23:08:01.096Z,78.51
2023-01-11T23:10:27.542Z,78.04
2023-01-11T23:13:12.423Z,78.72
2023-01-11T23:15:39.553Z,78.80
2023-01-11T23:18:07.078Z,78.16
2023-01-11T23:20:34.594Z,78.12
2023-01-11T23:23:01.335Z,78.34
2023-01-11T23:25:27.776Z,78.49
2023-01-11T23:27:54.269Z,78.24
2023-01-11T23:30:20.927Z,78.64
2023-01-11T23:32:47.341Z,77.88
2023-01-11T23:35:13.864Z,78.41
2023-01-11T23:37:40.393Z,78.97
2023-01-11T23:40:07.862Z,78.32
2023-01-11T23:42:35.495Z,78.95
2023-01-11T23:45:01.964Z,78.19
2023-01-11T23:47:31.404Z,78.82
2023-01-11T23:50:00.751Z,78.59
2023-01-11T23:52:30.297Z,78.39
2023-01-11T23:54:57.434Z,78.41
2023-01-11T23:57:25.426Z,78.64
2023-01-11T23:59:52.315Z,78.65
